sensor_id;sensor_type;location;lat;lon;timestamp;P1;durP1;ratioP1;P2;durP2;ratioP2
57087;SDS011;42965;52.846;6.614;2023-06-26T00:00:58;12.07;;;10.98;;
57087;SDS011;42965;52.846;6.614;2023-06-26T00:03:24;11.73;;;10.52;;
57087;SDS011;42965;52.846;6.614;2023-06-26T00:05:50;11.50;;;10.40;;
57087;SDS011;42965;52.846;6.614;2023-06-26T00:08:17;14.43;;;11.25;;
57087;SDS011;42965;52.846;6.614;2023-06-26T00:10:43;11.55;;;10.50;;
57087;SDS011;42965;52.846;6.614;2023-06-26T00:13:09;12.20;;;11.00;;
57087;SDS011;42965;52.846;6.614;2023-06-26T00:15:37;12.27;;;11.05;;
57087;SDS011;42965;52.846;6.614;2023-06-26T00:18:04;12.65;;;11.45;;
57087;SDS011;42965;52.846;6.614;2023-06-26T00:20:31;12.88;;;11.23;;
57087;SDS011;42965;52.846;6.614;2023-06-26T00:22:59;13.43;;;12.10;;
57087;SDS011;42965;52.846;6.614;2023-06-26T00:25:26;13.52;;;12.15;;
57087;SDS011;42965;52.846;6.614;2023-06-26T00:27:52;13.40;;;11.57;;
57087;SDS011;42965;52.846;6.614;2023-06-26T00:30:18;13.50;;;12.20;;
57087;SDS011;42965;52.846;6.614;2023-06-26T00:32:45;13.00;;;11.60;;
57087;SDS011;42965;52.846;6.614;2023-06-26T00:35:12;12.80;;;11.18;;
57087;SDS011;42965;52.846;6.614;2023-06-26T00:37:38;12.93;;;11.73;;
57087;SDS011;42965;52.846;6.614;2023-06-26T00:40:04;13.82;;;12.52;;
57087;SDS011;42965;52.846;6.614;2023-06-26T00:42:32;13.10;;;11.73;;
57087;SDS011;42965;52.846;6.614;2023-06-26T00:44:58;12.85;;;11.75;;
57087;SDS011;42965;52.846;6.614;2023-06-26T00:47:24;13.82;;;12.43;;
57087;SDS011;42965;52.846;6.614;2023-06-26T00:49:51;13.50;;;12.20;;
57087;SDS011;42965;52.846;6.614;2023-06-26T00:52:18;13.48;;;12.20;;
57087;SDS011;42965;52.846;6.614;2023-06-26T00:54:50;13.32;;;12.13;;
57087;SDS011;42965;52.846;6.614;2023-06-26T00:57:18;12.85;;;11.60;;
57087;SDS011;42965;52.846;6.614;2023-06-26T00:59:47;14.00;;;12.65;;
57087;SDS011;42965;52.846;6.614;2023-06-26T01:02:15;12.75;;;11.55;;
57087;SDS011;42965;52.846;6.614;2023-06-26T01:04:54;13.13;;;11.77;;
57087;SDS011;42965;52.846;6.614;2023-06-26T01:07:20;13.65;;;12.35;;
57087;SDS011;42965;52.846;6.614;2023-06-26T01:09:48;13.13;;;11.85;;
57087;SDS011;42965;52.846;6.614;2023-06-26T01:12:15;14.98;;;13.50;;
57087;SDS011;42965;52.846;6.614;2023-06-26T01:14:41;13.20;;;11.93;;
57087;SDS011;42965;52.846;6.614;2023-06-26T01:17:07;12.90;;;11.80;;
57087;SDS011;42965;52.846;6.614;2023-06-26T01:19:40;14.57;;;13.07;;
57087;SDS011;42965;52.846;6.614;2023-06-26T01:24:53;13.73;;;12.43;;
57087;SDS011;42965;52.846;6.614;2023-06-26T01:27:35;14.65;;;13.25;;
57087;SDS011;42965;52.846;6.614;2023-06-26T01:30:02;13.20;;;12.02;;
57087;SDS011;42965;52.846;6.614;2023-06-26T01:32:30;13.40;;;12.20;;
57087;SDS011;42965;52.846;6.614;2023-06-26T01:34:59;13.27;;;12.00;;
57087;SDS011;42965;52.846;6.614;2023-06-26T01:37:29;14.52;;;13.30;;
57087;SDS011;42965;52.846;6.614;2023-06-26T01:39:56;14.50;;;13.10;;
57087;SDS011;42965;52.846;6.614;2023-06-26T01:42:22;15.77;;;14.27;;
57087;SDS011;42965;52.846;6.614;2023-06-26T01:44:48;16.20;;;14.57;;
57087;SDS011;42965;52.846;6.614;2023-06-26T01:47:22;15.00;;;13.70;;
57087;SDS011;42965;52.846;6.614;2023-06-26T01:52:41;14.48;;;13.07;;
57087;SDS011;42965;52.846;6.614;2023-06-26T01:55:15;15.43;;;13.95;;
57087;SDS011;42965;52.846;6.614;2023-06-26T01:58:05;15.23;;;13.82;;
57087;SDS011;42965;52.846;6.614;2023-06-26T02:00:32;15.52;;;14.10;;
57087;SDS011;42965;52.846;6.614;2023-06-26T02:02:59;16.13;;;14.65;;
57087;SDS011;42965;52.846;6.614;2023-06-26T02:05:25;15.52;;;14.20;;
57087;SDS011;42965;52.846;6.614;2023-06-26T02:07:52;16.15;;;14.77;;
57087;SDS011;42965;52.846;6.614;2023-06-26T02:10:21;15.73;;;14.13;;
57087;SDS011;42965;52.846;6.614;2023-06-26T02:12:48;15.48;;;14.00;;
57087;SDS011;42965;52.846;6.614;2023-06-26T02:15:14;15.88;;;14.38;;
57087;SDS011;42965;52.846;6.614;2023-06-26T02:17:41;16.27;;;14.88;;
57087;SDS011;42965;52.846;6.614;2023-06-26T02:20:07;15.80;;;14.20;;
57087;SDS011;42965;52.846;6.614;2023-06-26T02:22:35;16.13;;;14.73;;
57087;SDS011;42965;52.846;6.614;2023-06-26T02:25:02;15.80;;;14.35;;
57087;SDS011;42965;52.846;6.614;2023-06-26T02:27:28;16.75;;;15.25;;
57087;SDS011;42965;52.846;6.614;2023-06-26T02:29:54;16.15;;;14.75;;
57087;SDS011;42965;52.846;6.614;2023-06-26T02:32:21;15.85;;;14.45;;
57087;SDS011;42965;52.846;6.614;2023-06-26T02:34:49;15.20;;;13.80;;
57087;SDS011;42965;52.846;6.614;2023-06-26T02:37:18;15.48;;;14.05;;
57087;SDS011;42965;52.846;6.614;2023-06-26T02:39:44;16.48;;;14.77;;
57087;SDS011;42965;52.846;6.614;2023-06-26T02:42:11;15.73;;;14.32;;
57087;SDS011;42965;52.846;6.614;2023-06-26T02:44:37;16.05;;;14.48;;
57087;SDS011;42965;52.846;6.614;2023-06-26T02:47:04;17.05;;;15.38;;
57087;SDS011;42965;52.846;6.614;2023-06-26T02:49:31;17.40;;;15.80;;
57087;SDS011;42965;52.846;6.614;2023-06-26T02:51:57;16.30;;;14.90;;
57087;SDS011;42965;52.846;6.614;2023-06-26T02:54:26;16.50;;;15.10;;
57087;SDS011;42965;52.846;6.614;2023-06-26T02:56:57;16.80;;;15.13;;
57087;SDS011;42965;52.846;6.614;2023-06-26T02:59:28;16.50;;;14.97;;
57087;SDS011;42965;52.846;6.614;2023-06-26T03:01:55;16.77;;;15.27;;
57087;SDS011;42965;52.846;6.614;2023-06-26T03:04:28;16.42;;;14.93;;
57087;SDS011;42965;52.846;6.614;2023-06-26T03:06:54;16.10;;;14.70;;
57087;SDS011;42965;52.846;6.614;2023-06-26T03:09:21;16.63;;;15.23;;
57087;SDS011;42965;52.846;6.614;2023-06-26T03:11:49;17.83;;;16.23;;
57087;SDS011;42965;52.846;6.614;2023-06-26T03:14:15;17.65;;;15.98;;
57087;SDS011;42965;52.846;6.614;2023-06-26T03:16:42;18.30;;;16.75;;
57087;SDS011;42965;52.846;6.614;2023-06-26T03:19:08;20.17;;;16.92;;
57087;SDS011;42965;52.846;6.614;2023-06-26T03:21:54;19.85;;;17.98;;
57087;SDS011;42965;52.846;6.614;2023-06-26T03:24:20;18.90;;;17.25;;
57087;SDS011;42965;52.846;6.614;2023-06-26T03:26:47;19.33;;;17.60;;
57087;SDS011;42965;52.846;6.614;2023-06-26T03:29:16;19.25;;;17.50;;
57087;SDS011;42965;52.846;6.614;2023-06-26T03:31:42;18.00;;;16.35;;
57087;SDS011;42965;52.846;6.614;2023-06-26T03:34:09;18.08;;;16.27;;
57087;SDS011;42965;52.846;6.614;2023-06-26T03:36:35;19.08;;;17.38;;
57087;SDS011;42965;52.846;6.614;2023-06-26T03:39:03;18.80;;;17.02;;
57087;SDS011;42965;52.846;6.614;2023-06-26T03:41:30;17.05;;;15.32;;
57087;SDS011;42965;52.846;6.614;2023-06-26T03:43:56;17.83;;;16.13;;
57087;SDS011;42965;52.846;6.614;2023-06-26T03:46:28;17.58;;;15.90;;
57087;SDS011;42965;52.846;6.614;2023-06-26T03:48:56;17.67;;;15.88;;
57087;SDS011;42965;52.846;6.614;2023-06-26T03:51:22;16.13;;;14.68;;
57087;SDS011;42965;52.846;6.614;2023-06-26T03:53:49;15.18;;;13.77;;
57087;SDS011;42965;52.846;6.614;2023-06-26T03:56:15;15.32;;;13.75;;
57087;SDS011;42965;52.846;6.614;2023-06-26T03:58:42;14.68;;;13.00;;
57087;SDS011;42965;52.846;6.614;2023-06-26T04:01:10;14.32;;;12.15;;
57087;SDS011;42965;52.846;6.614;2023-06-26T04:03:36;13.32;;;11.93;;
57087;SDS011;42965;52.846;6.614;2023-06-26T04:06:02;14.40;;;12.02;;
57087;SDS011;42965;52.846;6.614;2023-06-26T04:08:29;13.50;;;12.00;;
57087;SDS011;42965;52.846;6.614;2023-06-26T04:10:55;13.60;;;12.15;;
57087;SDS011;42965;52.846;6.614;2023-06-26T04:13:23;13.30;;;12.02;;
57087;SDS011;42965;52.846;6.614;2023-06-26T04:15:49;12.60;;;11.10;;
57087;SDS011;42965;52.846;6.614;2023-06-26T04:18:15;13.75;;;10.55;;
57087;SDS011;42965;52.846;6.614;2023-06-26T04:21:03;11.35;;;10.15;;
57087;SDS011;42965;52.846;6.614;2023-06-26T04:23:31;12.52;;;10.93;;
57087;SDS011;42965;52.846;6.614;2023-06-26T04:25:58;12.02;;;10.82;;
57087;SDS011;42965;52.846;6.614;2023-06-26T04:28:24;11.93;;;10.73;;
57087;SDS011;42965;52.846;6.614;2023-06-26T04:30:51;15.50;;;10.25;;
57087;SDS011;42965;52.846;6.614;2023-06-26T04:33:17;12.07;;;10.30;;
57087;SDS011;42965;52.846;6.614;2023-06-26T04:35:43;13.23;;;9.98;;
57087;SDS011;42965;52.846;6.614;2023-06-26T04:38:15;12.38;;;10.38;;
57087;SDS011;42965;52.846;6.614;2023-06-26T04:40:42;12.70;;;10.43;;
57087;SDS011;42965;52.846;6.614;2023-06-26T04:43:08;11.95;;;9.90;;
57087;SDS011;42965;52.846;6.614;2023-06-26T04:45:34;11.05;;;9.85;;
57087;SDS011;42965;52.846;6.614;2023-06-26T04:48:01;13.15;;;9.95;;
57087;SDS011;42965;52.846;6.614;2023-06-26T04:50:28;15.65;;;10.20;;
57087;SDS011;42965;52.846;6.614;2023-06-26T04:52:54;14.98;;;9.43;;
57087;SDS011;42965;52.846;6.614;2023-06-26T04:55:23;11.38;;;9.52;;
57087;SDS011;42965;52.846;6.614;2023-06-26T04:57:50;15.25;;;9.25;;
57087;SDS011;42965;52.846;6.614;2023-06-26T05:00:17;17.33;;;9.73;;
57087;SDS011;42965;52.846;6.614;2023-06-26T05:02:44;13.27;;;9.73;;
57087;SDS011;42965;52.846;6.614;2023-06-26T05:05:10;16.83;;;9.95;;
57087;SDS011;42965;52.846;6.614;2023-06-26T05:07:37;16.83;;;8.93;;
57087;SDS011;42965;52.846;6.614;2023-06-26T05:10:04;11.23;;;8.75;;
57087;SDS011;42965;52.846;6.614;2023-06-26T05:12:30;18.40;;;10.38;;
57087;SDS011;42965;52.846;6.614;2023-06-26T05:14:56;18.80;;;10.00;;
57087;SDS011;42965;52.846;6.614;2023-06-26T05:17:22;14.60;;;10.38;;
57087;SDS011;42965;52.846;6.614;2023-06-26T05:19:49;14.73;;;9.73;;
57087;SDS011;42965;52.846;6.614;2023-06-26T05:22:15;18.15;;;9.93;;
57087;SDS011;42965;52.846;6.614;2023-06-26T05:24:42;17.23;;;9.02;;
57087;SDS011;42965;52.846;6.614;2023-06-26T05:27:12;16.13;;;9.07;;
57087;SDS011;42965;52.846;6.614;2023-06-26T05:29:46;15.88;;;9.20;;
57087;SDS011;42965;52.846;6.614;2023-06-26T05:32:16;18.52;;;9.85;;
57087;SDS011;42965;52.846;6.614;2023-06-26T05:34:46;13.73;;;9.27;;
57087;SDS011;42965;52.846;6.614;2023-06-26T05:37:16;15.52;;;8.82;;
57087;SDS011;42965;52.846;6.614;2023-06-26T05:39:46;15.57;;;8.65;;
57087;SDS011;42965;52.846;6.614;2023-06-26T05:42:15;17.00;;;8.57;;
57087;SDS011;42965;52.846;6.614;2023-06-26T05:44:42;15.07;;;9.00;;
57087;SDS011;42965;52.846;6.614;2023-06-26T05:47:08;14.68;;;8.75;;
57087;SDS011;42965;52.846;6.614;2023-06-26T05:49:34;15.80;;;8.63;;
57087;SDS011;42965;52.846;6.614;2023-06-26T05:52:01;13.70;;;7.88;;
57087;SDS011;42965;52.846;6.614;2023-06-26T05:54:28;11.98;;;8.07;;
57087;SDS011;42965;52.846;6.614;2023-06-26T05:56:56;18.77;;;9.02;;
57087;SDS011;42965;52.846;6.614;2023-06-26T05:59:25;12.85;;;7.65;;
57087;SDS011;42965;52.846;6.614;2023-06-26T06:01:52;15.38;;;7.85;;
57087;SDS011;42965;52.846;6.614;2023-06-26T06:04:19;15.45;;;7.32;;
57087;SDS011;42965;52.846;6.614;2023-06-26T06:06:45;12.88;;;7.43;;
57087;SDS011;42965;52.846;6.614;2023-06-26T06:09:11;11.10;;;7.72;;
57087;SDS011;42965;52.846;6.614;2023-06-26T06:11:38;11.90;;;7.30;;
57087;SDS011;42965;52.846;6.614;2023-06-26T06:14:04;16.35;;;6.80;;
57087;SDS011;42965;52.846;6.614;2023-06-26T06:16:30;10.15;;;5.05;;
57087;SDS011;42965;52.846;6.614;2023-06-26T06:18:56;11.93;;;5.72;;
57087;SDS011;42965;52.846;6.614;2023-06-26T06:21:23;11.45;;;4.55;;
57087;SDS011;42965;52.846;6.614;2023-06-26T06:23:49;10.50;;;3.90;;
57087;SDS011;42965;52.846;6.614;2023-06-26T06:26:15;9.88;;;3.75;;
57087;SDS011;42965;52.846;6.614;2023-06-26T06:28:41;8.68;;;3.08;;
57087;SDS011;42965;52.846;6.614;2023-06-26T06:31:07;6.90;;;3.60;;
57087;SDS011;42965;52.846;6.614;2023-06-26T06:33:34;7.75;;;3.30;;
57087;SDS011;42965;52.846;6.614;2023-06-26T06:36:00;9.30;;;3.67;;
57087;SDS011;42965;52.846;6.614;2023-06-26T06:38:26;7.10;;;2.90;;
57087;SDS011;42965;52.846;6.614;2023-06-26T06:40:52;8.18;;;3.08;;
57087;SDS011;42965;52.846;6.614;2023-06-26T06:43:19;7.43;;;3.17;;
57087;SDS011;42965;52.846;6.614;2023-06-26T06:45:45;8.90;;;2.80;;
57087;SDS011;42965;52.846;6.614;2023-06-26T06:48:12;4.75;;;2.67;;
57087;SDS011;42965;52.846;6.614;2023-06-26T06:50:38;7.47;;;2.70;;
57087;SDS011;42965;52.846;6.614;2023-06-26T06:53:04;6.47;;;2.60;;
57087;SDS011;42965;52.846;6.614;2023-06-26T06:55:30;6.47;;;2.60;;
57087;SDS011;42965;52.846;6.614;2023-06-26T06:57:56;5.95;;;2.40;;
57087;SDS011;42965;52.846;6.614;2023-06-26T07:00:23;6.18;;;2.00;;
57087;SDS011;42965;52.846;6.614;2023-06-26T07:02:49;6.55;;;1.70;;
57087;SDS011;42965;52.846;6.614;2023-06-26T07:05:15;7.55;;;2.35;;
57087;SDS011;42965;52.846;6.614;2023-06-26T07:07:42;7.70;;;2.58;;
57087;SDS011;42965;52.846;6.614;2023-06-26T07:10:09;9.20;;;3.17;;
57087;SDS011;42965;52.846;6.614;2023-06-26T07:12:37;7.78;;;2.35;;
57087;SDS011;42965;52.846;6.614;2023-06-26T07:15:04;7.40;;;2.67;;
57087;SDS011;42965;52.846;6.614;2023-06-26T07:17:31;8.10;;;2.70;;
57087;SDS011;42965;52.846;6.614;2023-06-26T07:19:59;8.10;;;2.50;;
57087;SDS011;42965;52.846;6.614;2023-06-26T07:22:26;5.30;;;2.13;;
57087;SDS011;42965;52.846;6.614;2023-06-26T07:24:52;6.28;;;2.92;;
57087;SDS011;42965;52.846;6.614;2023-06-26T07:27:19;6.75;;;2.25;;
57087;SDS011;42965;52.846;6.614;2023-06-26T07:29:46;11.55;;;2.88;;
57087;SDS011;42965;52.846;6.614;2023-06-26T07:32:12;4.25;;;1.95;;
57087;SDS011;42965;52.846;6.614;2023-06-26T07:34:39;5.60;;;2.17;;
57087;SDS011;42965;52.846;6.614;2023-06-26T07:37:05;7.93;;;5.20;;
57087;SDS011;42965;52.846;6.614;2023-06-26T07:39:31;5.20;;;2.40;;
57087;SDS011;42965;52.846;6.614;2023-06-26T07:41:58;5.57;;;2.03;;
57087;SDS011;42965;52.846;6.614;2023-06-26T07:44:25;6.10;;;2.28;;
57087;SDS011;42965;52.846;6.614;2023-06-26T07:46:52;5.97;;;2.50;;
57087;SDS011;42965;52.846;6.614;2023-06-26T07:49:21;5.30;;;1.92;;
57087;SDS011;42965;52.846;6.614;2023-06-26T07:51:47;3.90;;;1.52;;
57087;SDS011;42965;52.846;6.614;2023-06-26T07:54:17;3.00;;;1.33;;
57087;SDS011;42965;52.846;6.614;2023-06-26T07:56:54;4.25;;;1.75;;
57087;SDS011;42965;52.846;6.614;2023-06-26T07:59:22;4.43;;;1.60;;
57087;SDS011;42965;52.846;6.614;2023-06-26T08:01:52;4.05;;;1.92;;
57087;SDS011;42965;52.846;6.614;2023-06-26T08:04:20;7.60;;;1.83;;
57087;SDS011;42965;52.846;6.614;2023-06-26T08:06:49;4.97;;;1.63;;
57087;SDS011;42965;52.846;6.614;2023-06-26T08:09:17;4.07;;;1.90;;
57087;SDS011;42965;52.846;6.614;2023-06-26T08:11:45;4.97;;;1.77;;
57087;SDS011;42965;52.846;6.614;2023-06-26T08:14:12;8.35;;;1.80;;
57087;SDS011;42965;52.846;6.614;2023-06-26T08:16:39;6.53;;;1.58;;
57087;SDS011;42965;52.846;6.614;2023-06-26T08:19:06;5.00;;;1.67;;
57087;SDS011;42965;52.846;6.614;2023-06-26T08:21:33;7.65;;;5.10;;
57087;SDS011;42965;52.846;6.614;2023-06-26T08:24:02;3.45;;;1.38;;
57087;SDS011;42965;52.846;6.614;2023-06-26T08:26:29;3.22;;;1.33;;
57087;SDS011;42965;52.846;6.614;2023-06-26T08:28:55;5.10;;;1.40;;
57087;SDS011;42965;52.846;6.614;2023-06-26T08:31:21;2.47;;;1.30;;
57087;SDS011;42965;52.846;6.614;2023-06-26T08:33:47;5.53;;;1.35;;
57087;SDS011;42965;52.846;6.614;2023-06-26T08:36:16;4.72;;;1.58;;
57087;SDS011;42965;52.846;6.614;2023-06-26T08:38:42;6.03;;;1.75;;
57087;SDS011;42965;52.846;6.614;2023-06-26T08:41:09;4.93;;;1.60;;
57087;SDS011;42965;52.846;6.614;2023-06-26T08:43:35;5.30;;;1.92;;
57087;SDS011;42965;52.846;6.614;2023-06-26T08:46:02;6.65;;;4.20;;
57087;SDS011;42965;52.846;6.614;2023-06-26T08:48:32;4.80;;;2.00;;
57087;SDS011;42965;52.846;6.614;2023-06-26T08:51:07;4.25;;;1.65;;
57087;SDS011;42965;52.846;6.614;2023-06-26T08:53:43;5.63;;;1.85;;
57087;SDS011;42965;52.846;6.614;2023-06-26T08:56:17;7.65;;;1.90;;
57087;SDS011;42965;52.846;6.614;2023-06-26T08:58:47;9.77;;;1.90;;
57087;SDS011;42965;52.846;6.614;2023-06-26T09:01:17;4.72;;;1.88;;
57087;SDS011;42965;52.846;6.614;2023-06-26T09:03:44;5.28;;;2.33;;
57087;SDS011;42965;52.846;6.614;2023-06-26T09:06:10;9.00;;;2.25;;
57087;SDS011;42965;52.846;6.614;2023-06-26T09:08:37;6.57;;;2.28;;
57087;SDS011;42965;52.846;6.614;2023-06-26T09:11:03;5.68;;;2.05;;
57087;SDS011;42965;52.846;6.614;2023-06-26T09:13:30;6.10;;;2.10;;
57087;SDS011;42965;52.846;6.614;2023-06-26T09:15:56;5.18;;;2.28;;
57087;SDS011;42965;52.846;6.614;2023-06-26T09:18:23;6.72;;;2.30;;
57087;SDS011;42965;52.846;6.614;2023-06-26T09:20:49;4.32;;;2.00;;
57087;SDS011;42965;52.846;6.614;2023-06-26T09:23:16;5.03;;;2.10;;
57087;SDS011;42965;52.846;6.614;2023-06-26T09:25:42;5.47;;;2.08;;
57087;SDS011;42965;52.846;6.614;2023-06-26T09:28:10;6.25;;;2.25;;
57087;SDS011;42965;52.846;6.614;2023-06-26T09:30:36;8.90;;;2.40;;
57087;SDS011;42965;52.846;6.614;2023-06-26T09:33:23;6.07;;;2.45;;
57087;SDS011;42965;52.846;6.614;2023-06-26T09:35:49;6.15;;;2.40;;
57087;SDS011;42965;52.846;6.614;2023-06-26T09:38:15;5.57;;;2.50;;
57087;SDS011;42965;52.846;6.614;2023-06-26T09:43:12;11.10;;;2.92;;
57087;SDS011;42965;52.846;6.614;2023-06-26T09:45:39;5.30;;;2.10;;
57087;SDS011;42965;52.846;6.614;2023-06-26T09:48:06;6.40;;;2.13;;
57087;SDS011;42965;52.846;6.614;2023-06-26T09:50:38;7.10;;;2.30;;
57087;SDS011;42965;52.846;6.614;2023-06-26T09:53:08;5.50;;;1.77;;
57087;SDS011;42965;52.846;6.614;2023-06-26T09:55:35;3.97;;;2.17;;
57087;SDS011;42965;52.846;6.614;2023-06-26T09:58:03;6.32;;;2.42;;
57087;SDS011;42965;52.846;6.614;2023-06-26T10:00:32;7.68;;;2.10;;
57087;SDS011;42965;52.846;6.614;2023-06-26T10:02:59;6.70;;;2.33;;
57087;SDS011;42965;52.846;6.614;2023-06-26T10:05:26;4.07;;;1.88;;
57087;SDS011;42965;52.846;6.614;2023-06-26T10:07:53;5.75;;;1.90;;
57087;SDS011;42965;52.846;6.614;2023-06-26T10:10:22;5.75;;;1.88;;
57087;SDS011;42965;52.846;6.614;2023-06-26T10:12:52;5.97;;;1.98;;
57087;SDS011;42965;52.846;6.614;2023-06-26T10:15:24;6.18;;;2.15;;
57087;SDS011;42965;52.846;6.614;2023-06-26T10:17:53;3.70;;;2.00;;
57087;SDS011;42965;52.846;6.614;2023-06-26T10:20:21;5.00;;;1.60;;
57087;SDS011;42965;52.846;6.614;2023-06-26T10:22:48;4.22;;;1.95;;
57087;SDS011;42965;52.846;6.614;2023-06-26T10:25:16;5.18;;;1.90;;
57087;SDS011;42965;52.846;6.614;2023-06-26T10:27:49;5.00;;;1.92;;
57087;SDS011;42965;52.846;6.614;2023-06-26T10:30:22;6.00;;;2.20;;
57087;SDS011;42965;52.846;6.614;2023-06-26T10:32:55;8.43;;;2.83;;
57087;SDS011;42965;52.846;6.614;2023-06-26T10:35:23;4.97;;;2.17;;
57087;SDS011;42965;52.846;6.614;2023-06-26T10:37:50;5.72;;;2.35;;
57087;SDS011;42965;52.846;6.614;2023-06-26T10:40:26;5.78;;;2.20;;
57087;SDS011;42965;52.846;6.614;2023-06-26T10:43:07;3.83;;;1.88;;
57087;SDS011;42965;52.846;6.614;2023-06-26T10:45:34;4.72;;;1.95;;
57087;SDS011;42965;52.846;6.614;2023-06-26T10:48:02;5.85;;;2.33;;
57087;SDS011;42965;52.846;6.614;2023-06-26T10:50:31;5.50;;;2.10;;
57087;SDS011;42965;52.846;6.614;2023-06-26T10:55:54;4.88;;;2.15;;
57087;SDS011;42965;52.846;6.614;2023-06-26T11:03:41;3.00;;;1.30;;
57087;SDS011;42965;52.846;6.614;2023-06-26T11:08:47;3.92;;;1.92;;
57087;SDS011;42965;52.846;6.614;2023-06-26T11:11:16;7.90;;;1.88;;
57087;SDS011;42965;52.846;6.614;2023-06-26T11:13:44;4.05;;;1.80;;
57087;SDS011;42965;52.846;6.614;2023-06-26T11:16:12;3.70;;;1.85;;
57087;SDS011;42965;52.846;6.614;2023-06-26T11:18:38;5.15;;;1.50;;
57087;SDS011;42965;52.846;6.614;2023-06-26T11:21:08;6.32;;;1.92;;
57087;SDS011;42965;52.846;6.614;2023-06-26T11:23:37;3.63;;;1.65;;
57087;SDS011;42965;52.846;6.614;2023-06-26T11:26:16;5.05;;;1.85;;
57087;SDS011;42965;52.846;6.614;2023-06-26T11:28:52;37.25;;;33.58;;
57087;SDS011;42965;52.846;6.614;2023-06-26T11:34:00;5.10;;;2.00;;
57087;SDS011;42965;52.846;6.614;2023-06-26T11:36:28;5.55;;;2.63;;
57087;SDS011;42965;52.846;6.614;2023-06-26T11:38:55;4.65;;;1.75;;
57087;SDS011;42965;52.846;6.614;2023-06-26T11:41:23;4.93;;;2.60;;
57087;SDS011;42965;52.846;6.614;2023-06-26T11:43:51;8.40;;;2.05;;
57087;SDS011;42965;52.846;6.614;2023-06-26T11:46:21;37.45;;;33.97;;
57087;SDS011;42965;52.846;6.614;2023-06-26T11:48:48;11.43;;;9.40;;
57087;SDS011;42965;52.846;6.614;2023-06-26T11:51:16;13.05;;;9.20;;
57087;SDS011;42965;52.846;6.614;2023-06-26T11:53:42;9.60;;;3.28;;
57087;SDS011;42965;52.846;6.614;2023-06-26T11:56:10;7.68;;;3.53;;
57087;SDS011;42965;52.846;6.614;2023-06-26T12:01:23;5.93;;;2.13;;
57087;SDS011;42965;52.846;6.614;2023-06-26T12:03:58;4.57;;;1.65;;
57087;SDS011;42965;52.846;6.614;2023-06-26T12:06:27;7.32;;;2.22;;
57087;SDS011;42965;52.846;6.614;2023-06-26T12:08:54;7.85;;;2.13;;
57087;SDS011;42965;52.846;6.614;2023-06-26T12:11:21;6.40;;;1.40;;
57087;SDS011;42965;52.846;6.614;2023-06-26T12:13:50;6.78;;;2.03;;
57087;SDS011;42965;52.846;6.614;2023-06-26T12:16:17;4.22;;;1.63;;
57087;SDS011;42965;52.846;6.614;2023-06-26T12:18:47;4.65;;;1.25;;
57087;SDS011;42965;52.846;6.614;2023-06-26T12:24:04;5.40;;;1.88;;
57087;SDS011;42965;52.846;6.614;2023-06-26T12:26:31;10.82;;;2.15;;
57087;SDS011;42965;52.846;6.614;2023-06-26T12:29:07;5.78;;;1.90;;
57087;SDS011;42965;52.846;6.614;2023-06-26T12:31:39;5.75;;;1.40;;
57087;SDS011;42965;52.846;6.614;2023-06-26T12:34:10;8.38;;;1.50;;
57087;SDS011;42965;52.846;6.614;2023-06-26T12:36:39;7.63;;;1.58;;
57087;SDS011;42965;52.846;6.614;2023-06-26T12:39:08;8.40;;;2.08;;
57087;SDS011;42965;52.846;6.614;2023-06-26T12:41:43;9.77;;;2.17;;
57087;SDS011;42965;52.846;6.614;2023-06-26T12:44:30;17.05;;;10.77;;
57087;SDS011;42965;52.846;6.614;2023-06-26T12:46:59;5.90;;;2.83;;
57087;SDS011;42965;52.846;6.614;2023-06-26T12:49:44;8.88;;;3.28;;
57087;SDS011;42965;52.846;6.614;2023-06-26T12:52:12;9.05;;;3.35;;
57087;SDS011;42965;52.846;6.614;2023-06-26T12:54:41;7.55;;;2.28;;
57087;SDS011;42965;52.846;6.614;2023-06-26T12:57:09;8.43;;;2.45;;
57087;SDS011;42965;52.846;6.614;2023-06-26T12:59:36;8.95;;;1.60;;
57087;SDS011;42965;52.846;6.614;2023-06-26T13:02:03;5.15;;;1.60;;
57087;SDS011;42965;52.846;6.614;2023-06-26T13:04:30;6.45;;;1.42;;
57087;SDS011;42965;52.846;6.614;2023-06-26T13:06:56;3.50;;;1.30;;
57087;SDS011;42965;52.846;6.614;2023-06-26T13:09:23;5.30;;;1.65;;
57087;SDS011;42965;52.846;6.614;2023-06-26T13:11:51;4.60;;;1.20;;
57087;SDS011;42965;52.846;6.614;2023-06-26T13:14:20;6.63;;;1.53;;
57087;SDS011;42965;52.846;6.614;2023-06-26T13:16:46;6.07;;;1.17;;
57087;SDS011;42965;52.846;6.614;2023-06-26T13:19:13;6.55;;;1.30;;
57087;SDS011;42965;52.846;6.614;2023-06-26T13:21:39;4.78;;;1.42;;
57087;SDS011;42965;52.846;6.614;2023-06-26T13:24:05;5.72;;;1.23;;
57087;SDS011;42965;52.846;6.614;2023-06-26T13:26:31;4.63;;;1.10;;
57087;SDS011;42965;52.846;6.614;2023-06-26T13:28:58;3.03;;;1.05;;
57087;SDS011;42965;52.846;6.614;2023-06-26T13:31:25;5.22;;;1.42;;
57087;SDS011;42965;52.846;6.614;2023-06-26T13:33:51;6.53;;;1.70;;
57087;SDS011;42965;52.846;6.614;2023-06-26T13:36:20;4.30;;;1.13;;
57087;SDS011;42965;52.846;6.614;2023-06-26T13:38:47;6.55;;;1.73;;
57087;SDS011;42965;52.846;6.614;2023-06-26T13:41:15;6.20;;;1.45;;
57087;SDS011;42965;52.846;6.614;2023-06-26T13:43:42;4.90;;;1.67;;
57087;SDS011;42965;52.846;6.614;2023-06-26T13:46:08;5.97;;;1.50;;
57087;SDS011;42965;52.846;6.614;2023-06-26T13:48:34;6.07;;;1.40;;
57087;SDS011;42965;52.846;6.614;2023-06-26T13:51:00;6.45;;;1.30;;
57087;SDS011;42965;52.846;6.614;2023-06-26T13:53:27;4.40;;;1.50;;
57087;SDS011;42965;52.846;6.614;2023-06-26T13:55:54;6.18;;;1.60;;
57087;SDS011;42965;52.846;6.614;2023-06-26T13:58:20;5.45;;;1.33;;
57087;SDS011;42965;52.846;6.614;2023-06-26T14:00:50;4.88;;;1.50;;
57087;SDS011;42965;52.846;6.614;2023-06-26T14:03:16;4.60;;;1.00;;
57087;SDS011;42965;52.846;6.614;2023-06-26T14:05:43;4.25;;;1.33;;
57087;SDS011;42965;52.846;6.614;2023-06-26T14:08:10;5.43;;;1.45;;
57087;SDS011;42965;52.846;6.614;2023-06-26T14:10:36;7.38;;;1.15;;
57087;SDS011;42965;52.846;6.614;2023-06-26T14:13:03;6.57;;;1.77;;
57087;SDS011;42965;52.846;6.614;2023-06-26T14:15:30;5.80;;;1.25;;
57087;SDS011;42965;52.846;6.614;2023-06-26T14:17:56;6.22;;;2.67;;
57087;SDS011;42965;52.846;6.614;2023-06-26T14:20:22;6.20;;;1.88;;
57087;SDS011;42965;52.846;6.614;2023-06-26T14:22:49;6.32;;;1.85;;
57087;SDS011;42965;52.846;6.614;2023-06-26T14:25:15;3.75;;;1.40;;
57087;SDS011;42965;52.846;6.614;2023-06-26T14:27:42;5.25;;;1.80;;
57087;SDS011;42965;52.846;6.614;2023-06-26T14:30:08;4.13;;;1.30;;
57087;SDS011;42965;52.846;6.614;2023-06-26T14:32:35;5.18;;;1.20;;
57087;SDS011;42965;52.846;6.614;2023-06-26T14:35:02;4.53;;;1.40;;
57087;SDS011;42965;52.846;6.614;2023-06-26T14:37:31;3.72;;;1.40;;
57087;SDS011;42965;52.846;6.614;2023-06-26T14:39:57;5.05;;;1.20;;
57087;SDS011;42965;52.846;6.614;2023-06-26T14:42:24;4.30;;;1.30;;
57087;SDS011;42965;52.846;6.614;2023-06-26T14:44:50;4.78;;;1.23;;
57087;SDS011;42965;52.846;6.614;2023-06-26T14:47:17;4.28;;;1.02;;
57087;SDS011;42965;52.846;6.614;2023-06-26T14:49:43;4.28;;;1.33;;
57087;SDS011;42965;52.846;6.614;2023-06-26T14:52:10;5.20;;;1.20;;
57087;SDS011;42965;52.846;6.614;2023-06-26T14:54:37;3.80;;;1.77;;
57087;SDS011;42965;52.846;6.614;2023-06-26T14:57:08;7.85;;;1.58;;
57087;SDS011;42965;52.846;6.614;2023-06-26T14:59:34;4.50;;;1.52;;
57087;SDS011;42965;52.846;6.614;2023-06-26T15:02:01;5.70;;;1.63;;
57087;SDS011;42965;52.846;6.614;2023-06-26T15:04:27;5.20;;;1.55;;
57087;SDS011;42965;52.846;6.614;2023-06-26T15:06:56;9.25;;;1.80;;
57087;SDS011;42965;52.846;6.614;2023-06-26T15:09:23;5.90;;;1.67;;